Vandenberg Air Force Base
KVBG : now visible

Airfield :











YOU CAN JOIN US ON...

 
LOGIN :

Register | Disclaimer

   EN    FR    IT 

 









Legend :    VFR   Marginal VFR   IFR   Intensive IFR   Very Intensive IFR
Visi :
Ceiling :
>= 8 km
>= 3000ft
5 to 8 km
1000 to 3000 ft
1500m to 5 km
500 to 1000 ft
800 to 1500m
200 to 500 ft
< 800m
< 200 ft
Symbols :   Thunderstorms  Fog  Heavy snow  Heavy precipitations  Wind > 20 kt






- Airport Elevation : 369 ft


KVBG - Vandenberg Air Force Base

CURRENT METAR :
  • 211940Z 29007KT 250V320 6SM BR BKN005 14/14 A3000 RMK AO2A SLP158 $

EXPIRED METARs :
  • 211858Z COR 29007KT 6SM BR BKN006 13/13 A3000 RMK AO2A SLP159 T01300130 COR 1909
  • 211758Z 00000KT 3SM BR OVC005 13/13 A2999 RMK AO2A CIG 004V006 SLP159 60002 T01350132 10135 20128 51007
  • 211700Z VRB03KT 4SM BR OVC003 12/12 A3000 RMK AO2A SLP158 T01210118 $

TAF AMD TAF KVBG
Valid from the 21 at 17:00 until the 22 at 20:00 UTC


211726Z 2117/2220 32006KT 9000 BR OVC003 QNH2998INS
BECMG 2200/2201 VRB06KT 1200 BR SCT005 QNH2998INS
BECMG 2201/2202 VRB06KT 0600 FG OVC003 QNH3000INS
BECMG 2202/2203 VRB06KT 0400 FG VV001 QNH3001INS
BECMG 2214/2215 33006KT 3000 BR SKC QNH3001INS
BECMG 2215/2216 33006KT 9999 NSW SKC QNH3001INS TX20/2121Z TN11/2214Z
KZLA FIR / North America



MET'MAP, your aeronautical weather chart ! - Copyright ORBIFLY December 2007 - Disclaimer

ORBIFLY MET'MAP TEAM :

Programming & Development : Alexandra Zaïnal
Concept & original design : Baudouin d'Aumeries
Assistance for programming : Marc-Olivier Méhu
Technical & hardware support : Manuel Goepfert

Contact : metmap@orbifly.com




SOURCES & CREDITS :

   NOAA       Earth
Advisory